Time;durP1;ratioP1;P1;durP2;ratioP2;P2;SDS_P1;SDS_P2;PMS_P1;PMS_P2;Temp;Humidity;BMP_temperature;BMP_pressure;BME280_temperature;BME280_humidity;BME280_pressure;Samples;Min_cycle;Max_cycle;Signal;HPM_P1;HPM_P2
2021/09/28 00:00:10;;;;;;;10.95;5.72;;;;;;;11.39;100.00;101495.19;685721;28;1980;-84
2021/09/28 00:00:35;;;;;;;9.80;5.70;;;;;;;11.40;100.00;101491.72;686147;28;4399;-84
2021/09/28 00:00:59;;;;;;;11.07;5.95;;;;;;;11.42;100.00;101534.47;684235;28;1715;-84
2021/09/28 00:01:19;;;;;;;12.77;6.30;;;;;;;11.41;100.00;101490.84;686200;28;2149;-84
2021/09/28 00:01:40;;;;;;;10.98;6.20;;;;;;;11.40;100.00;101517.91;684861;28;1273;-84
2021/09/28 00:02:01;;;;;;;9.93;5.77;;;;;;;11.44;100.00;101516.16;682825;28;1539;-84
2021/09/28 00:02:21;;;;;;;9.55;5.32;;;;;;;11.47;100.00;101506.59;683157;28;1923;-83
2021/09/28 00:02:42;;;;;;;10.00;5.30;;;;;;;11.50;100.00;101524.06;683926;28;1472;-84
2021/09/28 00:03:05;;;;;;;10.30;5.28;;;;;;;11.48;100.00;101524.06;683756;28;1230;-84
2021/09/28 00:03:26;;;;;;;8.25;5.00;;;;;;;11.48;99.98;101524.06;682642;28;4353;-84
2021/09/28 00:03:46;;;;;;;10.02;5.03;;;;;;;11.50;99.60;101506.59;677185;29;2765;-84
2021/09/28 00:04:07;;;;;;;10.03;5.13;;;;;;;11.50;99.90;101522.31;680517;28;2308;-84
2021/09/28 00:04:28;;;;;;;10.65;5.30;;;;;;;11.50;99.63;101527.53;686633;28;1514;-84
2021/09/28 00:04:51;;;;;;;10.32;5.07;;;;;;;11.51;99.29;101524.06;685873;28;1073;-84
2021/09/28 00:05:24;;;;;;;10.73;5.18;;;;;;;11.50;99.04;101503.97;688380;28;1435;-83
2021/09/28 00:05:47;;;;;;;11.85;5.43;;;;;;;11.42;99.36;101505.69;684653;28;1474;-84
2021/09/28 00:06:08;;;;;;;12.38;5.57;;;;;;;11.40;99.91;101536.22;683093;28;1379;-84
2021/09/28 00:06:31;;;;;;;11.85;5.85;;;;;;;11.36;100.00;101530.09;681763;28;5246;-84
2021/09/28 00:06:54;;;;;;;12.77;5.70;;;;;;;11.35;100.00;101527.47;685636;28;4053;-84
2021/09/28 00:07:16;;;;;;;12.53;5.53;;;;;;;11.29;100.00;101527.44;684479;28;1380;-84
2021/09/28 00:07:36;;;;;;;14.98;5.70;;;;;;;11.28;100.00;101528.28;686936;28;1626;-84
2021/09/28 00:08:01;;;;;;;13.60;5.80;;;;;;;11.28;100.00;101536.16;682349;28;1344;-84
2021/09/28 00:08:21;;;;;;;13.32;5.72;;;;;;;11.25;100.00;101518.69;684509;28;1213;-84
2021/09/28 00:08:45;;;;;;;12.70;5.67;;;;;;;11.25;100.00;101537.88;681151;28;1760;-84
2021/09/28 00:09:05;;;;;;;11.05;5.53;;;;;;;11.27;100.00;101513.44;683458;28;1524;-84
2021/09/28 00:09:31;;;;;;;11.27;5.47;;;;;;;11.22;100.00;101537.84;681395;28;4404;-84
2021/09/28 00:09:52;;;;;;;12.70;5.80;;;;;;;11.23;100.00;101534.38;682522;28;3131;-84
2021/09/28 00:10:12;;;;;;;11.48;5.80;;;;;;;11.22;100.00;101522.16;685585;28;3465;-84
2021/09/28 00:10:35;;;;;;;10.67;5.80;;;;;;;11.25;100.00;101511.69;680038;29;1582;-83
2021/09/28 00:10:56;;;;;;;12.18;5.72;;;;;;;11.29;100.00;101538.78;680343;29;1409;-85
2021/09/28 00:11:19;;;;;;;10.68;5.38;;;;;;;11.32;100.00;101540.53;683584;28;1341;-84
2021/09/28 00:11:39;;;;;;;10.23;5.43;;;;;;;11.34;100.00;101557.13;687585;28;3459;-84
2021/09/28 00:12:03;;;;;;;10.83;5.27;;;;;;;11.37;100.00;101533.59;687632;28;2212;-83
2021/09/28 00:12:25;;;;;;;10.02;5.47;;;;;;;11.40;100.00;101517.91;684932;28;4392;-84
2021/09/28 00:12:46;;;;;;;10.93;5.55;;;;;;;11.40;99.75;101542.31;684669;28;1691;-84
2021/09/28 00:13:07;;;;;;;9.25;5.25;;;;;;;11.41;100.00;101511.81;686561;28;2700;-84
2021/09/28 00:13:35;;;;;;;8.98;5.40;;;;;;;11.41;100.00;101532.75;685118;28;2662;-84
2021/09/28 00:13:56;;;;;;;12.30;5.25;;;;;;;11.38;100.00;101517.00;685879;28;1705;-84
2021/09/28 00:14:19;;;;;;;12.05;5.60;;;;;;;11.32;100.00;101544.03;686592;28;1322;-83
2021/09/28 00:14:40;;;;;;;13.10;5.80;;;;;;;11.31;100.00;101520.44;688859;28;1631;-84
2021/09/28 00:15:01;;;;;;;12.45;5.63;;;;;;;11.31;100.00;101509.97;685980;28;1383;-85
2021/09/28 00:15:25;;;;;;;10.20;5.20;;;;;;;11.38;100.00;101517.00;687253;28;1532;-84
2021/09/28 00:15:46;;;;;;;9.82;5.53;;;;;;;11.40;99.90;101520.50;683493;28;4799;-84
2021/09/28 00:16:06;;;;;;;11.02;5.15;;;;;;;11.35;99.75;101522.22;685503;28;1469;-84
2021/09/28 00:16:28;;;;;;;12.32;4.95;;;;;;;11.34;99.93;101517.84;682643;28;2893;-84
2021/09/28 00:16:58;;;;;;;10.82;5.20;;;;;;;11.32;100.00;101537.91;688183;28;1838;-84
2021/09/28 00:17:18;;;;;;;12.30;5.28;;;;;;;11.33;99.86;101530.06;685535;28;1504;-84
2021/09/28 00:17:40;;;;;;;11.17;5.00;;;;;;;11.37;99.89;101541.44;684971;28;1577;-84
2021/09/28 00:18:02;;;;;;;8.57;5.03;;;;;;;11.35;99.68;101523.13;681305;28;1592;-84
2021/09/28 00:18:32;;;;;;;9.27;4.70;;;;;;;11.41;99.03;101533.59;680492;28;4341;-83
2021/09/28 00:18:53;;;;;;;7.93;4.50;;;;;;;11.47;98.65;101519.66;686778;28;1199;-84
2021/09/28 00:19:16;;;;;;;8.73;4.40;;;;;;;11.48;98.57;101539.75;687123;28;1716;-84
2021/09/28 00:19:37;;;;;;;7.50;4.70;;;;;;;11.47;98.67;101531.91;682303;28;2573;-84
2021/09/28 00:20:08;;;;;;;9.75;5.20;;;;;;;11.44;99.34;101526.63;682184;28;1804;-84
2021/09/28 00:20:36;;;;;;;9.43;5.00;;;;;;;11.44;99.39;101526.63;684544;28;1402;-84
2021/09/28 00:20:58;;;;;;;11.02;4.97;;;;;;;11.41;99.21;101545.84;681346;29;1363;-84
2021/09/28 00:21:18;;;;;;;9.90;5.05;;;;;;;11.39;99.08;101521.38;679485;28;1586;-84
2021/09/28 00:21:39;;;;;;;12.52;5.35;;;;;;;11.33;99.41;101555.38;684864;28;4611;-84
2021/09/28 00:22:00;;;;;;;12.40;5.38;;;;;;;11.26;99.87;101538.75;688027;28;1445;-84
2021/09/28 00:22:21;;;;;;;12.38;5.65;;;;;;;11.21;99.83;101519.53;685226;28;1899;-84
2021/09/28 00:22:42;;;;;;;10.70;5.37;;;;;;;11.19;100.00;101519.50;681109;28;3771;-84
2021/09/28 00:23:04;;;;;;;10.75;5.20;;;;;;;11.17;100.00;101543.91;681587;28;2704;-84
2021/09/28 00:23:25;;;;;;;9.73;5.05;;;;;;;11.21;100.00;101546.56;681786;28;1636;-84
2021/09/28 00:23:46;;;;;;;10.40;4.95;;;;;;;11.29;99.53;101522.19;681094;28;1660;-84
2021/09/28 00:24:10;;;;;;;10.20;4.60;;;;;;;11.40;98.79;101541.47;681847;28;1201;-84
2021/09/28 00:24:31;;;;;;;10.75;4.80;;;;;;;11.36;98.68;101555.41;680221;28;4499;-84
2021/09/28 00:24:52;;;;;;;10.52;4.90;;;;;;;11.31;99.17;101551.88;684986;28;1745;-84
2021/09/28 00:25:15;;;;;;;11.15;5.40;;;;;;;11.28;99.21;101537.00;688573;28;1145;-83
2021/09/28 00:25:36;;;;;;;10.43;5.03;;;;;;;11.23;99.27;101534.38;685948;28;1476;-84
2021/09/28 00:25:59;;;;;;;9.85;4.90;;;;;;;11.21;99.51;101530.84;684122;28;3873;-84
2021/09/28 00:26:23;;;;;;;9.75;4.93;;;;;;;11.21;99.51;101549.19;683665;28;1812;-84
2021/09/28 00:26:43;;;;;;;9.27;5.10;;;;;;;11.26;99.40;101538.75;680569;28;1239;-84
2021/09/28 00:27:06;;;;;;;9.73;5.20;;;;;;;11.25;99.16;101543.09;681904;28;1320;-84
2021/09/28 00:27:32;;;;;;;9.10;4.93;;;;;;;11.18;99.28;101551.78;677001;29;4372;-84
2021/09/28 00:27:56;;;;;;;10.93;5.07;;;;;;;11.06;99.54;101542.13;684079;28;1295;-84
2021/09/28 00:28:28;;;;;;;15.10;5.60;;;;;;;11.04;99.97;101548.19;682786;28;1760;-84
2021/09/28 00:28:48;;;;;;;8.43;4.90;;;;;;;10.97;99.71;101541.19;683934;28;1731;-84
2021/09/28 00:29:09;;;;;;;10.00;5.00;;;;;;;10.99;100.00;101523.72;685438;28;3327;-84
2021/09/28 00:29:29;;;;;;;10.70;5.30;;;;;;;10.95;100.00;101525.47;680586;28;1364;-84
2021/09/28 00:29:50;;;;;;;13.43;5.50;;;;;;;10.88;100.00;101549.81;688594;28;1535;-84
2021/09/28 00:30:14;;;;;;;12.93;5.55;;;;;;;10.84;100.00;101548.94;688690;28;1427;-84
2021/09/28 00:30:35;;;;;;;11.95;5.40;;;;;;;10.84;100.00;101522.78;688936;28;4399;-84
2021/09/28 00:31:01;;;;;;;13.10;5.50;;;;;;;10.83;100.00;101560.25;685365;28;1581;-85
2021/09/28 00:31:31;;;;;;;10.48;5.53;;;;;;;10.85;100.00;101542.81;683641;28;1698;-84
2021/09/28 00:31:51;;;;;;;11.25;5.78;;;;;;;10.85;100.00;101528.88;683098;28;1466;-83
2021/09/28 00:32:19;;;;;;;10.55;5.55;;;;;;;10.82;100.00;101531.47;683528;28;4312;-84
2021/09/28 00:32:41;;;;;;;12.67;5.37;;;;;;;10.77;100.00;101523.56;686455;28;1433;-84
2021/09/28 00:33:02;;;;;;;12.07;5.28;;;;;;;10.78;100.00;101525.31;691450;28;1359;-84
2021/09/28 00:33:26;;;;;;;10.90;5.40;;;;;;;10.78;100.00;101524.44;690718;28;1224;-84
2021/09/28 00:33:49;;;;;;;12.45;6.03;;;;;;;10.81;100.00;101542.78;686033;28;4988;-84
2021/09/28 00:34:09;;;;;;;11.40;5.93;;;;;;;10.82;100.00;101547.16;684028;28;1374;-84
2021/09/28 00:34:30;;;;;;;12.47;5.50;;;;;;;10.88;100.00;101566.41;681799;28;2115;-84
2021/09/28 00:34:53;;;;;;;12.65;5.75;;;;;;;10.92;100.00;101538.50;682389;28;1989;-84
2021/09/28 00:35:14;;;;;;;10.63;5.37;;;;;;;10.93;100.00;101540.25;681825;28;3080;-84
2021/09/28 00:35:35;;;;;;;8.93;5.25;;;;;;;10.97;100.00;101530.72;685224;28;1381;-84
2021/09/28 00:35:56;;;;;;;9.50;5.30;;;;;;;10.97;100.00;101526.34;683070;28;1814;-84
2021/09/28 00:36:18;;;;;;;10.63;5.30;;;;;;;11.01;100.00;101527.25;684053;28;1744;-84
2021/09/28 00:36:42;;;;;;;8.68;4.90;;;;;;;10.99;99.91;101550.75;686454;28;4468;-84
2021/09/28 00:37:08;;;;;;;9.65;5.13;;;;;;;11.02;99.60;101523.75;683619;28;1634;-84
2021/09/28 00:37:29;;;;;;;8.25;5.20;;;;;;;11.03;99.52;101549.06;687904;28;1309;-84
2021/09/28 00:37:49;;;;;;;7.57;4.83;;;;;;;11.02;100.00;101529.88;685045;28;1977;-84
2021/09/28 00:38:10;;;;;;;7.25;4.93;;;;;;;10.98;99.75;101540.28;686294;28;2554;-84
2021/09/28 00:38:35;;;;;;;8.00;5.03;;;;;;;10.96;99.61;101549.88;686334;28;1672;-84
2021/09/28 00:38:59;;;;;;;8.65;4.95;;;;;;;11.00;99.97;101554.28;685784;28;1474;-84
2021/09/28 00:39:19;;;;;;;9.82;4.95;;;;;;;11.07;99.60;101556.06;683736;28;2060;-84
2021/09/28 00:39:40;;;;;;;11.53;5.00;;;;;;;11.16;99.03;101532.59;683054;28;4380;-84
2021/09/28 00:40:04;;;;;;;9.05;4.90;;;;;;;11.20;98.66;101529.13;686405;28;1406;-84
2021/09/28 00:40:25;;;;;;;8.98;5.10;;;;;;;11.19;98.40;101529.97;687647;28;1256;-84
2021/09/28 00:40:51;;;;;;;7.80;4.93;;;;;;;11.09;98.11;101554.34;685848;28;1426;-84
2021/09/28 00:41:12;;;;;;;8.73;4.85;;;;;;;10.97;98.48;101551.63;683329;28;3811;-84
2021/09/28 00:41:32;;;;;;;9.93;5.20;;;;;;;10.90;99.12;101530.66;685547;28;1324;-84
2021/09/28 00:41:53;;;;;;;10.60;5.10;;;;;;;10.87;99.12;101541.09;687724;28;1375;-84
2021/09/28 00:42:14;;;;;;;11.50;5.10;;;;;;;10.82;99.47;101536.69;685836;28;1636;-84
2021/09/28 00:42:37;;;;;;;9.47;5.10;;;;;;;10.83;99.79;101549.78;684497;28;4392;-84
2021/09/28 00:42:58;;;;;;;10.15;5.03;;;;;;;10.87;99.88;101533.25;680816;28;1995;-84
2021/09/28 00:43:18;;;;;;;9.32;5.50;;;;;;;10.85;100.00;101565.47;681916;28;1357;-84
2021/09/28 00:43:49;;;;;;;8.48;5.10;;;;;;;10.89;100.00;101539.34;681179;28;1455;-84
2021/09/28 00:44:09;;;;;;;10.95;5.40;;;;;;;10.90;100.00;101567.28;684285;28;3349;-84
2021/09/28 00:44:40;;;;;;;16.03;5.60;;;;;;;10.83;100.00;101534.09;685550;28;3357;-84
2021/09/28 00:45:07;;;;;;;11.25;5.50;;;;;;;10.82;99.98;101548.03;685111;28;1949;-84
2021/09/28 00:45:38;;;;;;;11.70;5.72;;;;;;;10.80;100.00;101546.25;682880;28;4426;-84
2021/09/28 00:45:58;;;;;;;13.35;5.45;;;;;;;10.78;100.00;101556.69;683197;28;2034;-84
2021/09/28 00:46:23;;;;;;;12.48;5.55;;;;;;;10.76;100.00;101558.44;681661;28;1631;-84
2021/09/28 00:46:43;;;;;;;13.10;5.60;;;;;;;10.73;100.00;101542.72;681929;28;1255;-84
2021/09/28 00:47:11;;;;;;;9.97;5.43;;;;;;;10.73;100.00;101538.38;680724;29;1184;-84
2021/09/28 00:47:35;;;;;;;11.57;5.43;;;;;;;10.76;100.00;101547.09;681436;28;2126;-84
2021/09/28 00:47:56;;;;;;;12.00;5.75;;;;;;;10.78;100.00;101534.91;684699;28;1287;-84
2021/09/28 00:48:16;;;;;;;12.95;5.60;;;;;;;10.80;100.00;101544.53;684094;28;1977;-84
2021/09/28 00:48:40;;;;;;;11.15;5.38;;;;;;;10.83;100.00;101539.31;684738;28;4401;-84
2021/09/28 00:49:01;;;;;;;11.85;5.53;;;;;;;10.85;100.00;101552.41;685857;28;1287;-84
2021/09/28 00:49:30;;;;;;;12.10;5.38;;;;;;;10.86;100.00;101562.88;683706;28;2419;-84
2021/09/28 00:49:51;;;;;;;10.63;5.22;;;;;;;10.89;100.00;101538.50;680359;28;1848;-85
2021/09/28 00:50:13;;;;;;;10.20;5.37;;;;;;;10.90;100.00;101556.81;681382;28;1280;-84
2021/09/28 00:50:36;;;;;;;10.05;5.25;;;;;;;10.89;100.00;101560.28;682363;28;2597;-84
2021/09/28 00:50:59;;;;;;;10.52;5.20;;;;;;;10.91;100.00;101557.72;682146;28;1631;-84
2021/09/28 00:51:21;;;;;;;10.90;5.15;;;;;;;10.93;99.78;101548.13;684243;28;1741;-84
2021/09/28 00:51:44;;;;;;;9.68;4.97;;;;;;;10.97;99.54;101541.19;687304;28;4346;-84
2021/09/28 00:52:05;;;;;;;7.45;4.85;;;;;;;10.99;99.36;101550.75;691134;28;1233;-84
2021/09/28 00:52:26;;;;;;;8.70;5.07;;;;;;;11.00;99.08;101565.59;688515;28;1424;-84
2021/09/28 00:52:47;;;;;;;10.15;5.20;;;;;;;10.99;98.96;101561.22;685482;28;1544;-84
2021/09/28 00:53:08;;;;;;;10.00;5.05;;;;;;;11.00;99.14;101533.34;682548;28;2814;-84
2021/09/28 00:53:32;;;;;;;8.15;5.00;;;;;;;10.97;99.70;101556.88;682490;28;1508;-83
2021/09/28 00:53:55;;;;;;;10.80;5.25;;;;;;;11.00;100.00;101572.59;681901;28;3757;-84
2021/09/28 00:54:17;;;;;;;9.65;5.10;;;;;;;10.94;99.69;101549.88;681800;28;1788;-84
2021/09/28 00:54:39;;;;;;;9.52;5.30;;;;;;;10.95;99.63;101542.88;681219;28;4344;-84
2021/09/28 00:55:03;;;;;;;9.52;5.40;;;;;;;10.91;100.00;101562.94;685484;28;2153;-84
2021/09/28 00:55:29;;;;;;;10.25;5.32;;;;;;;10.87;99.96;101533.25;683643;28;1603;-83
2021/09/28 00:55:49;;;;;;;9.23;5.10;;;;;;;10.87;100.00;101548.06;685331;28;1301;-84
2021/09/28 00:56:15;;;;;;;9.57;5.40;;;;;;;10.86;100.00;101555.03;689045;28;1785;-84
2021/09/28 00:56:35;;;;;;;9.77;5.47;;;;;;;10.84;99.85;101551.53;685777;28;1257;-84
2021/09/28 00:56:56;;;;;;;9.10;5.10;;;;;;;10.88;100.00;101542.84;686684;28;2069;-84
2021/09/28 00:57:32;;;;;;;9.05;5.32;;;;;;;10.84;99.94;101543.69;685355;28;2444;-85
2021/09/28 00:57:57;;;;;;;9.55;5.10;;;;;;;10.81;100.00;101540.16;677869;29;5294;-84
2021/09/28 00:58:18;;;;;;;9.13;5.00;;;;;;;10.80;100.00;101543.63;680018;29;1660;-84
2021/09/28 00:58:42;;;;;;;10.75;5.25;;;;;;;10.82;100.00;101541.94;681636;28;1437;-84
2021/09/28 00:59:04;;;;;;;9.48;5.00;;;;;;;10.84;99.93;101545.41;680844;28;1276;-84
2021/09/28 00:59:25;;;;;;;8.13;4.88;;;;;;;10.86;100.00;101548.94;679797;29;1299;-84
2021/09/28 00:59:46;;;;;;;9.07;5.10;;;;;;;10.89;99.89;101554.19;680395;28;1177;-84
2021/09/28 01:00:13;;;;;;;9.77;5.35;;;;;;;10.89;99.67;101555.03;684666;28;2166;-84
2021/09/28 01:00:34;;;;;;;9.52;5.13;;;;;;;10.90;99.62;101559.41;685554;28;4360;-84
2021/09/28 01:00:55;;;;;;;10.60;5.05;;;;;;;10.92;99.11;101542.88;686872;28;1390;-84
2021/09/28 01:01:19;;;;;;;7.67;4.67;;;;;;;10.93;99.18;101560.31;688027;28;1953;-84
2021/09/28 01:01:40;;;;;;;9.85;4.43;;;;;;;10.95;99.21;101559.47;681466;28;1265;-84
2021/09/28 01:02:02;;;;;;;11.17;4.63;;;;;;;10.99;98.59;101544.66;680533;28;1378;-84
2021/09/28 01:02:25;;;;;;;8.75;4.45;;;;;;;11.04;98.74;101540.34;679585;29;1970;-84
2021/09/28 01:02:45;;;;;;;8.32;4.30;;;;;;;11.03;98.40;101534.22;682626;28;1287;-84
2021/09/28 01:03:07;;;;;;;9.68;4.70;;;;;;;10.96;98.66;101539.41;679068;29;3714;-85
2021/09/28 01:03:28;;;;;;;8.30;4.82;;;;;;;10.88;98.86;101566.41;682092;28;4388;-84
2021/09/28 01:03:49;;;;;;;9.40;4.82;;;;;;;10.80;99.07;101539.31;684884;28;1441;-84
2021/09/28 01:04:10;;;;;;;9.90;4.68;;;;;;;10.80;99.11;101568.06;684121;28;1672;-84
2021/09/28 01:04:31;;;;;;;7.90;4.55;;;;;;;10.77;99.33;101543.63;685628;28;2150;-84
2021/09/28 01:04:51;;;;;;;10.70;5.30;;;;;;;10.82;99.35;101548.03;680907;28;1280;-84
2021/09/28 01:05:12;;;;;;;9.20;4.87;;;;;;;10.87;99.39;101562.03;681369;28;1227;-84
2021/09/28 01:05:38;;;;;;;9.32;4.90;;;;;;;10.89;99.28;101548.94;685119;28;1467;-84
2021/09/28 01:06:05;;;;;;;8.27;4.38;;;;;;;10.92;98.95;101574.25;688107;28;3500;-84
2021/09/28 01:06:26;;;;;;;7.65;4.47;;;;;;;10.93;98.63;101562.94;687611;28;4370;-84
2021/09/28 01:06:49;;;;;;;9.02;4.50;;;;;;;10.96;98.38;101570.81;684315;28;1655;-84
2021/09/28 01:07:10;;;;;;;7.00;4.40;;;;;;;10.95;97.98;101553.34;683759;28;1785;-84
2021/09/28 01:07:34;;;;;;;7.35;4.60;;;;;;;10.96;98.64;101565.56;681096;28;1256;-84
2021/09/28 01:07:54;;;;;;;10.00;4.80;;;;;;;10.98;98.62;101574.31;683909;28;2297;-84
2021/09/28 01:08:25;;;;;;;8.77;4.60;;;;;;;10.95;98.68;101572.56;683587;28;1341;-84
2021/09/28 01:08:51;;;;;;;8.48;4.60;;;;;;;10.96;98.14;101548.13;680057;29;1848;-84
2021/09/28 01:09:12;;;;;;;7.60;4.40;;;;;;;11.01;98.37;101558.66;682058;28;2216;-84
2021/09/28 01:09:34;;;;;;;8.77;4.53;;;;;;;10.97;98.15;101564.72;683074;28;4345;-84
2021/09/28 01:09:55;;;;;;;11.68;4.60;;;;;;;10.93;98.56;101570.78;684586;28;1350;-84
2021/09/28 01:10:15;;;;;;;10.90;4.80;;;;;;;10.86;98.84;101568.09;680061;28;2080;-84
2021/09/28 01:10:36;;;;;;;9.35;4.88;;;;;;;10.86;99.15;101549.78;681874;28;1568;-84
2021/09/28 01:11:03;;;;;;;9.77;4.88;;;;;;;10.82;98.83;101557.63;679699;29;1355;-84
2021/09/28 01:11:24;;;;;;;8.40;4.53;;;;;;;10.77;99.10;101570.63;682426;29;1816;-83
2021/09/28 01:11:44;;;;;;;8.63;4.80;;;;;;;10.72;99.53;101572.34;676987;29;1873;-84
2021/09/28 01:12:13;;;;;;;8.70;4.73;;;;;;;10.73;99.73;101566.28;682099;29;1891;-84
2021/09/28 01:12:37;;;;;;;9.73;4.80;;;;;;;10.73;99.23;101559.28;683194;28;4384;-84
2021/09/28 01:12:58;;;;;;;10.52;5.10;;;;;;;10.76;99.69;101565.41;682683;29;1560;-84
2021/09/28 01:13:19;;;;;;;9.23;4.85;;;;;;;10.76;99.93;101542.75;682465;29;1417;-84
2021/09/28 01:13:39;;;;;;;9.50;4.80;;;;;;;10.76;99.76;101573.25;679798;29;1064;-84
2021/09/28 01:14:02;;;;;;;9.07;4.90;;;;;;;10.69;99.88;101554.88;687301;28;1485;-84
2021/09/28 01:14:25;;;;;;;9.27;4.97;;;;;;;10.68;99.62;101562.72;683648;28;1218;-84
2021/09/28 01:14:45;;;;;;;10.07;4.70;;;;;;;10.71;99.68;101562.75;688652;28;1411;-84
2021/09/28 01:15:06;;;;;;;8.20;4.72;;;;;;;10.73;99.39;101558.41;689705;28;1355;-83
2021/09/28 01:15:30;;;;;;;9.10;4.82;;;;;;;10.75;99.61;101545.34;690433;28;4438;-84
2021/09/28 01:16:02;;;;;;;9.98;5.10;;;;;;;10.70;100.00;101543.56;682781;28;3588;-84
2021/09/28 01:16:24;;;;;;;9.85;5.03;;;;;;;10.67;100.00;101537.44;681776;28;1717;-83
2021/09/28 01:16:52;;;;;;;11.88;4.90;;;;;;;10.61;100.00;101566.16;684199;28;1061;-84
2021/09/28 01:17:15;;;;;;;12.67;5.10;;;;;;;10.63;100.00;101573.13;685619;28;1309;-84
2021/09/28 01:17:35;;;;;;;9.50;5.20;;;;;;;10.66;99.95;101557.50;685737;28;1532;-83
2021/09/28 01:18:00;;;;;;;8.33;4.90;;;;;;;10.66;100.00;101551.34;686453;28;1172;-84
2021/09/28 01:18:24;;;;;;;9.15;5.10;;;;;;;10.67;100.00;101568.81;686162;28;1626;-83
2021/09/28 01:18:58;;;;;;;9.38;4.95;;;;;;;10.65;100.00;101563.56;684737;28;4869;-84
2021/09/28 01:19:19;;;;;;;9.57;4.80;;;;;;;10.67;100.00;101545.28;684011;28;1561;-85
2021/09/28 01:19:40;;;;;;;7.55;4.60;;;;;;;10.66;99.85;101552.25;680444;28;1344;-84
2021/09/28 01:20:00;;;;;;;7.95;4.60;;;;;;;10.69;99.60;101549.66;678771;29;1306;-84
2021/09/28 01:20:24;;;;;;;9.13;4.70;;;;;;;10.74;99.26;101573.22;682541;28;2198;-84
2021/09/28 01:20:44;;;;;;;8.00;4.43;;;;;;;10.77;99.02;101575.00;680434;28;1087;-84
2021/09/28 01:21:08;;;;;;;7.63;4.28;;;;;;;10.76;98.83;101563.69;682120;28;1264;-84
2021/09/28 01:21:29;;;;;;;8.25;4.50;;;;;;;10.73;98.68;101555.81;682205;28;4337;-84
2021/09/28 01:21:55;;;;;;;9.27;4.70;;;;;;;10.69;98.67;101569.72;684354;28;3309;-84
2021/09/28 01:22:24;;;;;;;10.05;4.75;;;;;;;10.62;99.67;101545.25;680279;28;1660;-84
2021/09/28 01:22:45;;;;;;;10.70;4.70;;;;;;;10.60;99.25;101548.69;683150;28;1400;-84
2021/09/28 01:23:32;;;;;;;10.20;4.60;;;;;;;10.59;99.46;101554.78;682228;28;1663;-84
2021/09/28 01:23:59;;;;;;;9.48;4.60;;;;;;;10.61;99.73;101579.22;683259;28;1242;-84
2021/09/28 01:24:40;;;;;;;8.73;4.90;;;;;;;10.60;99.94;101561.78;683980;28;1848;-84
2021/09/28 01:25:48;;;;;;;11.95;4.85;;;;;;;10.52;99.89;101573.03;679856;29;1560;-84
2021/09/28 01:26:24;;;;;;;10.40;4.50;;;;;;;10.56;99.91;101558.25;680836;28;1713;-84
2021/09/28 01:26:54;;;;;;;9.15;4.68;;;;;;;10.68;99.40;101587.13;682771;28;965;-84
2021/09/28 01:27:16;;;;;;;7.38;4.28;;;;;;;10.75;99.19;101554.06;679815;28;1334;-84
2021/09/28 01:27:57;;;;;;;7.43;4.10;;;;;;;10.73;98.51;101555.81;674115;28;4363;-84
2021/09/28 01:28:24;;;;;;;9.18;4.53;;;;;;;10.69;98.85;101574.94;678036;29;4900;-84
2021/09/28 01:29:12;;;;;;;9.15;4.28;;;;;;;10.71;98.69;101552.28;681070;28;1410;-84
2021/09/28 01:29:33;;;;;;;9.95;5.13;;;;;;;10.65;98.78;101575.78;686571;28;1506;-84
2021/09/28 01:29:55;;;;;;;11.47;4.87;;;;;;;10.57;99.01;101571.31;687609;28;1203;-83
2021/09/28 01:30:24;;;;;;;10.70;4.78;;;;;;;10.49;98.73;101577.34;685136;28;1233;-84
2021/09/28 01:31:17;;;;;;;7.65;4.40;;;;;;;10.48;99.49;101563.41;685360;28;1319;-84
2021/09/28 01:31:49;;;;;;;11.73;5.00;;;;;;;10.46;99.77;101569.47;676654;29;1533;-84
2021/09/28 01:32:36;;;;;;;9.90;4.80;;;;;;;10.45;99.44;101558.13;687095;28;989;-84
2021/09/28 01:32:57;;;;;;;10.38;4.70;;;;;;;10.46;99.73;101593.88;685734;28;1402;-84
2021/09/28 01:33:36;;;;;;;9.40;4.80;;;;;;;10.43;99.79;101586.00;686403;28;4504;-84
2021/09/28 01:34:22;;;;;;;10.05;4.75;;;;;;;10.33;99.82;101558.88;689555;28;3391;-84
2021/09/28 01:34:46;;;;;;;12.32;5.03;;;;;;;10.30;99.98;101581.47;688616;28;1410;-84
2021/09/28 01:35:09;;;;;;;9.77;4.57;;;;;;;10.28;99.94;101575.38;686553;28;1288;-83
2021/09/28 01:35:30;;;;;;;8.88;4.72;;;;;;;10.32;100.00;101582.38;684195;28;1352;-84
2021/09/28 01:35:53;;;;;;;7.82;4.70;;;;;;;10.36;100.00;101572.00;682592;28;1920;-84
2021/09/28 01:36:16;;;;;;;7.47;4.88;;;;;;;10.39;100.00;101565.94;683385;28;1328;-84
2021/09/28 01:37:32;;;;;;;8.25;4.80;;;;;;;10.39;99.96;101565.94;677047;29;3608;-83
2021/09/28 01:37:59;;;;;;;11.68;5.30;;;;;;;10.43;100.00;101566.84;681599;28;1281;-83
2021/09/28 01:38:30;;;;;;;;;;;;;;;;;;;;;
2021/09/28 01:39:04;;;;;;;9.85;5.13;;;;;;;10.43;100.00;101559.88;685069;28;1185;-83
2021/09/28 01:39:24;;;;;;;10.88;5.13;;;;;;;10.42;100.00;101579.03;686920;28;4369;-84
2021/09/28 01:39:47;;;;;;;11.07;5.63;;;;;;;10.40;100.00;101554.63;687862;28;1312;-84
2021/09/28 01:40:11;;;;;;;9.80;5.35;;;;;;;10.36;100.00;101561.53;689094;28;1632;-84
2021/09/28 01:40:37;;;;;;;11.90;5.40;;;;;;;10.28;100.00;101557.06;685555;28;3828;-84
2021/09/28 01:40:58;;;;;;;10.02;5.22;;;;;;;10.25;100.00;101562.28;683037;28;1181;-84
2021/09/28 01:41:18;;;;;;;9.35;5.20;;;;;;;10.20;100.00;101559.59;682927;28;1616;-84
2021/09/28 01:41:59;;;;;;;10.33;5.07;;;;;;;10.27;100.00;101556.16;682071;28;1315;-84
2021/09/28 01:42:22;;;;;;;10.10;5.13;;;;;;;10.22;100.00;101577.03;682080;29;1293;-84
2021/09/28 01:42:46;;;;;;;10.95;5.10;;;;;;;10.25;100.00;101577.94;683953;28;4349;-84
2021/09/28 01:43:13;;;;;;;9.43;5.30;;;;;;;10.30;100.00;101564.06;682896;28;1725;-84
2021/09/28 01:43:56;;;;;;;10.00;5.00;;;;;;;10.31;100.00;101559.72;681985;28;3626;-84
2021/09/28 01:44:19;;;;;;;10.98;5.40;;;;;;;10.28;100.00;101565.78;676295;29;1468;-84
2021/09/28 01:44:45;;;;;;;13.38;5.75;;;;;;;10.28;100.00;101557.06;683794;28;1390;-84
2021/09/28 01:45:09;;;;;;;10.80;5.30;;;;;;;10.26;100.00;101556.16;684116;28;1217;-84
2021/09/28 01:45:49;;;;;;;11.82;5.32;;;;;;;10.25;100.00;101596.25;688622;28;4319;-84
2021/09/28 01:46:18;;;;;;;9.80;5.53;;;;;;;10.23;100.00;101567.44;676905;29;1606;-84
2021/09/28 01:46:47;;;;;;;9.00;5.20;;;;;;;10.24;100.00;101590.13;680996;28;1419;-84
2021/09/28 01:47:39;;;;;;;10.70;5.20;;;;;;;10.21;100.00;101587.47;682756;28;2365;-85
2021/09/28 01:48:06;;;;;;;12.43;5.43;;;;;;;10.25;100.00;101576.19;685529;28;1634;-84
2021/09/28 01:48:47;;;;;;;9.57;5.25;;;;;;;10.30;100.00;101564.06;691164;28;4322;-84
2021/09/28 01:49:34;;;;;;;9.48;5.15;;;;;;;10.20;99.85;101573.53;687552;28;2717;-84
2021/09/28 01:49:55;;;;;;;9.60;5.30;;;;;;;10.16;100.00;101579.59;686944;28;3069;-84
2021/09/28 01:50:15;;;;;;;11.18;5.32;;;;;;;10.14;100.00;101568.22;685852;28;1524;-84
2021/09/28 01:50:41;;;;;;;12.27;5.40;;;;;;;10.13;100.00;101561.25;682816;28;1415;-84
2021/09/28 01:51:02;;;;;;;13.68;5.30;;;;;;;10.09;100.00;101559.44;686676;28;1943;-84
2021/09/28 01:51:23;;;;;;;11.90;5.40;;;;;;;10.13;100.00;101552.53;687865;28;1031;-84
2021/09/28 01:51:47;;;;;;;10.43;5.57;;;;;;;10.18;100.00;101572.63;683842;28;4396;-84
2021/09/28 01:52:10;;;;;;;8.90;5.00;;;;;;;10.25;100.00;101570.09;682990;28;1237;-84
2021/09/28 01:52:37;;;;;;;8.80;5.05;;;;;;;10.27;100.00;101579.69;687535;28;1721;-84
2021/09/28 01:53:13;;;;;;;10.35;5.07;;;;;;;10.36;99.43;101563.28;687792;28;1592;-84
2021/09/28 01:53:39;;;;;;;8.40;4.53;;;;;;;10.42;99.51;101557.25;687970;28;1222;-84
2021/09/28 01:54:00;;;;;;;8.90;4.57;;;;;;;10.43;98.81;101559.88;687281;28;2101;-83
2021/09/28 01:54:21;;;;;;;9.57;5.13;;;;;;;10.34;98.60;101584.19;681651;28;1257;-84
2021/09/28 01:54:44;;;;;;;11.38;5.30;;;;;;;10.32;98.85;101561.47;680484;28;4372;-84
2021/09/28 01:55:20;;;;;;;11.07;5.20;;;;;;;10.32;99.25;101582.38;684725;28;2307;-84
2021/09/28 01:56:10;;;;;;;12.68;5.20;;;;;;;10.27;99.73;101557.91;684429;28;1047;-84
2021/09/28 01:56:31;;;;;;;11.82;5.30;;;;;;;10.28;99.82;101564.91;681134;28;1472;-84